Terminal Aerodrome Forecast
Issued by NWS North Platte, NE

Home | Current Version | Previous Version | Graphics & Text | Print | Product List | Glossary On
Versions: 1 2 3 4 5 6 7 8 9 10 11 12 13 14 15 16 17
000
FTUS43 KLBF 220500
TAFVTN
TAF
KVTN 220532Z 2206/2306 34005KT P6SM VCTS SCT090CB SCT150
     FM221000 36005KT P6SM SCT150
     FM221500 05009KT P6SM SCT150
     FM230000 09010KT P6SM SKC=

USA.gov is the U.S. government's official web portal to all federal, state and local government web resources and services.